Terminal Aerodrome Forecast
Issued by NWS

Home | Current Version | Previous Version | Text Only | Print | Product List | Glossary On
Versions: 1 2 3 4 5 6 7 8 9 10 11 12 13 14 15 16 17 18 19 20 21 22 23 24 25 26 27 28 29 30 31 32 33 34
000
FTUS41 KCTP 222157 AAA
TAFAOO
TAF AMD
KAOO 222157Z 2222/2318 26005KT P6SM VCTS BKN040CB BKN250
      TEMPO 2223/2224 29010G20KT 5SM -TSRA OVC025CB
     FM230000 23008KT P6SM BKN050
     FM231200 21012G18KT 4SM -RA BR OVC007=

USA.gov is the U.S. government's official web portal to all federal, state and local government web resources and services.